Lopburi, Thailand
Current Conditions -  °F | °C
As of 2:30 AM on Tuesday 23 Dec 2014 (Local Time) from VTBD Reporting Station
Clear Clear  
Wind Chill: 70°   Ceiling: Unl
Heat Index: 70°   Visibility: 5mi
Dew Point: 55°   Wind: 9mph
Humidity: 60%   Direction: 360°N
Pressure: 29.91"   Gusts: NA
Location:  14.8°N, 100.62°E
Report Text: VTBD 221930Z 36008KT 8000 NSC 21/13 Q1013 NOSIG
Loading
Personal Weather Stations






























Interactive Weather Map New forecast layout! Learn more

10-Day Weather Forecast

Advertisements
Track Severe Weather on mobile